createdAt,value
2023-09-05T00:00:14.119Z,66.50
2023-09-05T00:02:46.244Z,65.07
2023-09-05T00:05:13.331Z,70.47
2023-09-05T00:07:41.511Z,70.30
2023-09-05T00:10:12.120Z,64.00
2023-09-05T00:12:42.670Z,74.65
2023-09-05T00:15:14.240Z,67.97
2023-09-05T00:17:41.701Z,66.70
2023-09-05T00:20:09.197Z,70.43
2023-09-05T00:22:36.210Z,67.07
2023-09-05T00:25:04.148Z,71.47
2023-09-05T00:27:31.023Z,76.38
2023-09-05T00:29:58.684Z,72.95
2023-09-05T00:32:25.505Z,70.55
2023-09-05T00:34:52.344Z,71.70
2023-09-05T00:37:23.842Z,71.20
2023-09-05T00:39:51.070Z,69.15
2023-09-05T00:42:18.639Z,75.25
2023-09-05T00:44:47.910Z,73.18
2023-09-05T00:47:14.759Z,72.55
2023-09-05T00:49:48.196Z,70.72
2023-09-05T00:52:15.279Z,74.85
2023-09-05T00:54:42.511Z,80.63
2023-09-05T00:57:15.784Z,67.10
2023-09-05T00:59:43.611Z,56.78
2023-09-05T01:02:16.764Z,72.32
2023-09-05T01:04:44.607Z,74.53
2023-09-05T01:07:19.534Z,79.38
2023-09-05T01:09:55.034Z,73.70
2023-09-05T01:12:21.875Z,76.00
2023-09-05T01:14:48.713Z,77.18
2023-09-05T01:17:15.810Z,78.30
2023-09-05T01:19:42.977Z,73.70
2023-09-05T01:22:18.841Z,73.90
2023-09-05T01:24:48.801Z,69.93
2023-09-05T01:27:18.914Z,72.95
2023-09-05T01:29:45.925Z,67.68
2023-09-05T01:32:13.085Z,71.03
2023-09-05T01:34:40.224Z,73.60
2023-09-05T01:37:07.054Z,75.32
2023-09-05T01:39:34.069Z,77.28
2023-09-05T01:42:00.931Z,76.38
2023-09-05T01:44:27.794Z,74.53
2023-09-05T01:46:54.705Z,76.97
2023-09-05T01:49:21.634Z,72.70
2023-09-05T01:51:48.515Z,72.15
2023-09-05T01:54:15.365Z,76.05
2023-09-05T01:56:42.193Z,74.15
2023-09-05T01:59:09.245Z,77.57
2023-09-05T02:01:36.053Z,65.10
2023-09-05T02:04:02.913Z,76.10
2023-09-05T02:06:30.889Z,80.93
2023-09-05T02:08:57.623Z,79.25
2023-09-05T02:11:24.702Z,73.32
2023-09-05T02:13:51.489Z,69.35
2023-09-05T02:16:20.224Z,71.55
2023-09-05T02:18:53.366Z,69.43
2023-09-05T02:21:20.127Z,67.55
2023-09-05T02:23:46.921Z,72.53
2023-09-05T02:26:14.220Z,65.03
2023-09-05T02:28:41.062Z,69.15
2023-09-05T02:31:08.144Z,66.78
2023-09-05T02:33:38.338Z,64.45
2023-09-05T02:36:16.598Z,70.57
2023-09-05T02:38:44.014Z,68.93
2023-09-05T02:41:17.816Z,66.15
2023-09-05T02:43:48.860Z,60.65
2023-09-05T02:46:15.950Z,58.95
2023-09-05T02:48:43.069Z,60.55
2023-09-05T02:51:11.173Z,66.47
2023-09-05T02:53:38.473Z,60.25
2023-09-05T02:56:05.676Z,58.97
2023-09-05T02:58:33.512Z,71.78
2023-09-05T03:01:04.336Z,60.50
2023-09-05T03:03:32.160Z,67.10
2023-09-05T03:06:08.077Z,67.43
2023-09-05T03:08:37.339Z,64.32
2023-09-05T03:11:04.142Z,62.28
2023-09-05T03:13:31.020Z,65.03
2023-09-05T03:15:57.819Z,66.97
2023-09-05T03:18:26.338Z,64.32
2023-09-05T03:20:56.244Z,63.55
2023-09-05T03:23:24.116Z,67.00
2023-09-05T03:25:53.166Z,67.43
2023-09-05T03:28:20.744Z,66.45
2023-09-05T03:30:47.643Z,65.55
2023-09-05T03:33:14.456Z,62.08
2023-09-05T03:35:43.188Z,71.35
2023-09-05T03:38:10.456Z,66.53
2023-09-05T03:40:37.482Z,76.10
2023-09-05T03:43:04.381Z,72.60
2023-09-05T03:45:32.039Z,66.10
2023-09-05T03:48:02.084Z,63.67
2023-09-05T03:50:29.829Z,63.60
2023-09-05T03:52:56.830Z,62.00
2023-09-05T03:55:23.941Z,70.63
2023-09-05T03:57:50.945Z,69.30
2023-09-05T04:00:18.385Z,68.03
2023-09-05T04:02:45.351Z,71.45
2023-09-05T04:05:12.771Z,69.45
2023-09-05T04:07:41.840Z,70.28
2023-09-05T04:10:09.965Z,63.72
2023-09-05T04:12:38.347Z,61.50
2023-09-05T04:15:05.999Z,56.67
2023-09-05T04:17:32.855Z,60.97
2023-09-05T04:20:00.041Z,71.47
2023-09-05T04:22:29.463Z,65.53
2023-09-05T04:24:56.377Z,70.22
2023-09-05T04:27:25.190Z,59.10
2023-09-05T04:29:52.533Z,63.30
2023-09-05T04:32:30.120Z,60.75
2023-09-05T04:34:58.034Z,64.38
2023-09-05T04:37:25.032Z,65.55
2023-09-05T04:39:52.156Z,69.13
2023-09-05T04:42:18.900Z,68.07
2023-09-05T04:44:45.764Z,69.20
2023-09-05T04:47:25.485Z,74.80
2023-09-05T04:49:54.190Z,69.35
2023-09-05T04:52:21.811Z,64.70
2023-09-05T04:54:48.741Z,65.40
2023-09-05T04:57:15.852Z,72.63
2023-09-05T04:59:45.046Z,65.82
2023-09-05T05:02:12.064Z,78.13
2023-09-05T05:04:38.919Z,63.83
2023-09-05T05:07:05.646Z,67.05
2023-09-05T05:09:32.422Z,60.65
2023-09-05T05:12:00.411Z,70.63
2023-09-05T05:14:27.622Z,74.47
2023-09-05T05:16:55.077Z,70.20
2023-09-05T05:19:22.781Z,77.78
2023-09-05T05:21:50.202Z,74.30
2023-09-05T05:24:17.001Z,70.47
2023-09-05T05:26:44.272Z,70.05
2023-09-05T05:29:11.168Z,73.38
2023-09-05T05:31:38.927Z,78.72
2023-09-05T05:34:05.783Z,89.75
2023-09-05T05:36:32.816Z,77.82
2023-09-05T05:39:00.177Z,76.40
2023-09-05T05:41:28.983Z,79.90
2023-09-05T05:43:58.790Z,79.65
2023-09-05T05:46:25.697Z,76.20
2023-09-05T05:48:53.067Z,75.25
2023-09-05T05:51:20.105Z,71.70
2023-09-05T05:53:47.923Z,79.43
2023-09-05T05:56:14.792Z,79.40
2023-09-05T05:58:41.734Z,73.32
2023-09-05T06:01:09.127Z,75.32
2023-09-05T06:03:36.685Z,75.38
2023-09-05T06:06:04.595Z,71.85
2023-09-05T06:08:31.890Z,76.22
2023-09-05T06:10:59.045Z,76.70
2023-09-05T06:13:26.129Z,72.50
2023-09-05T06:15:53.597Z,69.25
2023-09-05T06:18:20.852Z,69.15
2023-09-05T06:20:47.635Z,71.72
2023-09-05T06:23:14.744Z,75.38
2023-09-05T06:25:41.735Z,73.47
2023-09-05T06:28:11.286Z,73.60
2023-09-05T06:30:38.079Z,65.57
2023-09-05T06:33:05.359Z,72.95
2023-09-05T06:35:32.126Z,77.20
2023-09-05T06:37:59.045Z,75.82
2023-09-05T06:40:26.232Z,84.68
2023-09-05T06:42:55.790Z,74.95
2023-09-05T06:45:22.751Z,72.57
2023-09-05T06:47:49.634Z,78.20
2023-09-05T06:50:16.576Z,69.78
2023-09-05T06:52:43.595Z,82.63
2023-09-05T06:55:11.063Z,79.20
2023-09-05T06:57:38.012Z,80.18
2023-09-05T07:00:05.256Z,70.03
2023-09-05T07:02:32.111Z,74.65
2023-09-05T07:04:58.948Z,79.57
2023-09-05T07:07:26.896Z,74.07
2023-09-05T07:09:54.623Z,76.47
2023-09-05T07:12:21.483Z,89.35
2023-09-05T07:14:49.995Z,75.05
2023-09-05T07:17:19.889Z,77.32
2023-09-05T07:19:47.928Z,81.57
2023-09-05T07:22:14.811Z,71.20
2023-09-05T07:24:41.723Z,69.10
2023-09-05T07:27:25.069Z,77.47
2023-09-05T07:29:54.994Z,73.77
2023-09-05T07:32:21.822Z,67.22
2023-09-05T07:34:50.104Z,60.45
2023-09-05T07:37:17.277Z,64.65
2023-09-05T07:39:46.328Z,64.35
2023-09-05T07:42:13.090Z,63.97
2023-09-05T07:44:40.896Z,64.75
2023-09-05T07:47:07.855Z,57.65
2023-09-05T07:49:38.556Z,53.80
2023-09-05T07:52:35.274Z,56.53
2023-09-05T07:55:02.254Z,50.47
2023-09-05T07:57:29.381Z,51.17
2023-09-05T07:59:56.380Z,50.90
2023-09-05T08:02:23.237Z,51.22
2023-09-05T08:04:53.167Z,51.20
2023-09-05T08:07:19.927Z,53.85
2023-09-05T08:09:49.718Z,45.83
2023-09-05T08:12:16.534Z,47.53
2023-09-05T08:14:43.448Z,48.28
2023-09-05T08:17:13.015Z,40.72
2023-09-05T08:19:41.319Z,47.58
2023-09-05T08:22:08.318Z,44.17
2023-09-05T08:24:36.743Z,45.92
2023-09-05T08:27:06.238Z,44.63
2023-09-05T08:29:33.615Z,41.65
2023-09-05T08:32:00.831Z,41.70
2023-09-05T08:34:27.713Z,42.45
2023-09-05T08:36:59.305Z,41.30
2023-09-05T08:39:26.032Z,38.10
2023-09-05T08:41:53.730Z,33.70
2023-09-05T08:44:26.287Z,32.67
2023-09-05T08:46:53.283Z,32.33
2023-09-05T08:49:20.222Z,29.88
2023-09-05T08:51:49.428Z,30.58
2023-09-05T08:54:21.824Z,27.98
2023-09-05T08:56:48.800Z,31.48
2023-09-05T08:59:21.114Z,28.23
2023-09-05T09:01:55.699Z,23.88
2023-09-05T09:04:25.045Z,25.70
2023-09-05T09:06:59.104Z,27.88
2023-09-05T09:09:34.971Z,26.73
2023-09-05T09:12:01.897Z,24.38
2023-09-05T09:14:28.848Z,23.25
2023-09-05T09:16:55.688Z,24.42
2023-09-05T09:19:22.607Z,22.20
2023-09-05T09:21:49.357Z,21.50
2023-09-05T09:24:19.879Z,20.63
2023-09-05T09:26:56.892Z,19.75
2023-09-05T09:29:56.557Z,26.35
2023-09-05T09:32:26.209Z,20.08
2023-09-05T09:34:53.050Z,17.45
2023-09-05T09:37:25.857Z,14.88
2023-09-05T09:40:14.238Z,16.77
2023-09-05T09:42:41.209Z,16.23
2023-09-05T09:45:11.246Z,12.55
2023-09-05T09:47:39.568Z,13.02
2023-09-05T09:50:09.180Z,14.95
2023-09-05T09:52:36.161Z,10.95
2023-09-05T09:55:04.335Z,9.50
2023-09-05T09:57:43.283Z,9.80
2023-09-05T10:00:12.962Z,6.75
2023-09-05T10:02:39.994Z,10.38
2023-09-05T10:05:10.057Z,6.97
2023-09-05T10:07:36.888Z,8.48
2023-09-05T10:10:06.905Z,7.65
2023-09-05T10:12:37.134Z,8.13
2023-09-05T10:15:18.100Z,6.57
2023-09-05T10:17:51.092Z,6.70
2023-09-05T10:20:23.980Z,10.00
2023-09-05T10:22:54.599Z,7.20
2023-09-05T10:25:21.553Z,5.25
2023-09-05T10:27:49.967Z,6.78
2023-09-05T10:33:38.806Z,4.60
2023-09-05T10:36:07.779Z,4.88
2023-09-05T10:38:40.158Z,7.05
2023-09-05T10:41:09.586Z,4.40
2023-09-05T10:43:36.500Z,4.72
2023-09-05T10:46:20.064Z,4.05
2023-09-05T10:48:47.031Z,4.18
2023-09-05T10:51:14.960Z,7.25
2023-09-05T10:54:26.301Z,6.55
2023-09-05T10:57:30.461Z,6.38
2023-09-05T10:59:57.778Z,4.85
2023-09-05T11:02:50.517Z,4.78
2023-09-05T11:05:20.771Z,4.85
2023-09-05T11:07:51.658Z,5.15
2023-09-05T11:10:31.348Z,3.47
2023-09-05T11:13:10.108Z,5.13
2023-09-05T11:15:40.765Z,5.43
2023-09-05T11:18:15.434Z,6.03
2023-09-05T11:20:49.787Z,3.35
2023-09-05T11:23:30.680Z,4.20
2023-09-05T11:26:01.758Z,4.38
2023-09-05T11:28:36.042Z,4.90
2023-09-05T11:31:09.827Z,3.47
2023-09-05T11:34:33.674Z,15.90
2023-09-05T11:40:23.279Z,5.45
2023-09-05T11:42:50.263Z,6.68
2023-09-05T11:45:29.988Z,3.42
2023-09-05T11:47:59.529Z,2.70
2023-09-05T11:50:26.643Z,4.00
2023-09-05T11:56:40.112Z,4.63
2023-09-05T11:59:07.070Z,4.07
2023-09-05T12:01:33.995Z,2.35
2023-09-05T12:04:20.560Z,2.95
2023-09-05T12:07:12.305Z,3.17
2023-09-05T12:09:39.371Z,2.85
2023-09-05T12:13:03.601Z,3.53
2023-09-05T12:15:31.627Z,2.13
2023-09-05T12:18:00.848Z,5.57
2023-09-05T12:20:28.025Z,5.10
2023-09-05T12:22:54.768Z,1.83
2023-09-05T12:25:42.670Z,4.05
2023-09-05T12:29:34.086Z,1.80
2023-09-05T12:32:00.924Z,3.50
2023-09-05T12:34:46.615Z,4.15
2023-09-05T12:37:19.018Z,6.05
2023-09-05T12:39:46.016Z,5.00
2023-09-05T12:42:15.851Z,4.18
2023-09-05T12:44:42.785Z,3.28
2023-09-05T12:47:24.594Z,2.60
2023-09-05T12:50:08.254Z,3.25
2023-09-05T12:52:38.046Z,3.67
2023-09-05T12:55:05.093Z,5.57
2023-09-05T12:57:31.993Z,2.50
2023-09-05T12:59:59.201Z,3.40
2023-09-05T13:02:26.051Z,2.60
2023-09-05T13:04:52.945Z,1.83
2023-09-05T13:07:20.012Z,1.33
2023-09-05T13:09:46.730Z,2.28
2023-09-05T13:12:13.762Z,4.38
2023-09-05T13:14:40.730Z,3.22
2023-09-05T13:17:07.465Z,2.90
2023-09-05T13:19:35.068Z,1.50
2023-09-05T13:22:01.873Z,2.65
2023-09-05T13:24:28.882Z,1.40
2023-09-05T13:26:57.142Z,4.32
2023-09-05T13:29:24.123Z,2.08
2023-09-05T13:31:51.036Z,3.45
2023-09-05T13:34:18.144Z,1.70
2023-09-05T13:36:50.519Z,1.58
2023-09-05T13:39:17.899Z,1.80
2023-09-05T13:41:44.820Z,1.95
2023-09-05T13:44:12.901Z,1.45
2023-09-05T13:46:39.862Z,4.38
2023-09-05T13:49:15.641Z,2.47
2023-09-05T13:51:44.694Z,2.53
2023-09-05T13:54:14.732Z,6.55
2023-09-05T13:56:48.136Z,1.30
2023-09-05T13:59:15.261Z,2.92
2023-09-05T14:01:42.513Z,1.80
2023-09-05T14:04:11.515Z,2.53
2023-09-05T14:06:43.998Z,3.88
2023-09-05T14:09:18.343Z,2.83
2023-09-05T14:11:54.068Z,2.33
2023-09-05T14:14:23.460Z,3.17
2023-09-05T14:16:55.029Z,3.15
2023-09-05T14:19:22.131Z,1.73
2023-09-05T14:21:49.224Z,1.67
2023-09-05T14:24:16.074Z,2.60
2023-09-05T14:26:42.901Z,2.35
2023-09-05T14:29:10.097Z,5.53
2023-09-05T14:31:40.129Z,2.20
2023-09-05T14:34:10.384Z,1.77
2023-09-05T14:36:42.627Z,1.80
2023-09-05T14:39:09.521Z,2.90
2023-09-05T14:41:36.763Z,1.98
2023-09-05T14:44:05.621Z,2.83
2023-09-05T14:46:35.647Z,2.65
2023-09-05T14:49:03.499Z,2.05
2023-09-05T14:51:30.865Z,5.78
2023-09-05T14:53:58.356Z,2.95
2023-09-05T14:56:25.270Z,2.35
2023-09-05T14:58:56.319Z,2.22
2023-09-05T15:01:26.304Z,2.65
2023-09-05T15:03:54.494Z,2.00
2023-09-05T15:06:21.495Z,2.35
2023-09-05T15:08:51.172Z,2.83
2023-09-05T15:11:19.869Z,4.05
2023-09-05T15:13:53.514Z,2.75
2023-09-05T15:16:25.765Z,2.60
2023-09-05T15:18:52.605Z,2.95
2023-09-05T15:21:19.464Z,2.42
2023-09-05T15:23:46.253Z,3.33
2023-09-05T15:26:13.135Z,2.20
2023-09-05T15:28:41.457Z,2.20
2023-09-05T15:31:09.903Z,4.55
2023-09-05T15:33:36.992Z,2.90
2023-09-05T15:36:03.902Z,4.13
2023-09-05T15:38:30.808Z,4.78
2023-09-05T15:40:57.669Z,2.15
2023-09-05T15:43:24.533Z,3.47
2023-09-05T15:45:51.999Z,1.63
2023-09-05T15:48:20.658Z,3.50
2023-09-05T15:50:48.881Z,2.00
2023-09-05T15:53:18.946Z,2.58
2023-09-05T15:55:45.872Z,2.35
2023-09-05T15:58:12.818Z,3.65
2023-09-05T16:00:39.872Z,1.77
2023-09-05T16:03:09.877Z,2.08
2023-09-05T16:05:36.853Z,2.00
2023-09-05T16:08:04.177Z,1.63
2023-09-05T16:10:30.965Z,2.40
2023-09-05T16:12:57.714Z,1.92
2023-09-05T16:15:24.566Z,1.60
2023-09-05T16:17:51.566Z,2.38
2023-09-05T16:20:18.670Z,4.18
2023-09-05T16:22:45.578Z,4.30
2023-09-05T16:25:12.512Z,2.88
2023-09-05T16:27:39.414Z,2.10
2023-09-05T16:30:09.775Z,2.42
2023-09-05T16:32:37.217Z,2.13
2023-09-05T16:35:04.681Z,2.53
2023-09-05T16:37:32.068Z,2.67
2023-09-05T16:40:00.017Z,3.70
2023-09-05T16:42:27.163Z,4.05
2023-09-05T16:44:54.118Z,2.08
2023-09-05T16:47:21.135Z,2.55
2023-09-05T16:49:48.041Z,2.60
2023-09-05T16:52:16.242Z,6.35
2023-09-05T16:54:44.102Z,4.38
2023-09-05T16:57:13.542Z,1.75
2023-09-05T16:59:41.868Z,1.55
2023-09-05T17:02:08.689Z,6.72
2023-09-05T17:07:24.310Z,7.13
2023-09-05T17:09:54.190Z,2.47
2023-09-05T17:12:21.062Z,3.30
2023-09-05T17:14:47.898Z,1.98
2023-09-05T17:17:14.827Z,3.08
2023-09-05T17:19:50.562Z,1.80
2023-09-05T17:22:20.558Z,4.15
2023-09-05T17:24:48.158Z,3.78
2023-09-05T17:27:15.189Z,5.30
2023-09-05T17:29:42.236Z,2.60
2023-09-05T17:32:10.108Z,4.05
2023-09-05T17:34:36.925Z,2.60
2023-09-05T17:37:32.130Z,2.85
2023-09-05T17:39:58.936Z,4.53
2023-09-05T17:42:26.209Z,4.57
2023-09-05T17:44:53.542Z,3.95
2023-09-05T17:47:20.366Z,2.58
2023-09-05T17:49:47.351Z,3.45
2023-09-05T17:52:14.279Z,1.77
2023-09-05T17:54:41.279Z,3.10
2023-09-05T17:57:08.031Z,2.88
2023-09-05T17:59:35.937Z,2.25
2023-09-05T18:04:49.945Z,2.47
2023-09-05T18:07:19.592Z,3.47
2023-09-05T18:20:56.313Z,2.67
2023-09-05T18:23:26.046Z,2.40
2023-09-05T18:26:16.454Z,2.47
2023-09-05T18:28:45.930Z,3.85
2023-09-05T18:31:18.812Z,2.90
2023-09-05T18:33:49.789Z,2.87
2023-09-05T18:36:26.411Z,1.75
2023-09-05T18:38:53.565Z,2.53
2023-09-05T18:41:20.506Z,5.25
2023-09-05T18:43:47.892Z,3.47
2023-09-05T18:46:15.871Z,4.70
2023-09-05T18:48:43.194Z,4.70
2023-09-05T18:51:14.969Z,3.88
2023-09-05T18:53:47.502Z,3.00
2023-09-05T18:56:14.419Z,3.30
2023-09-05T18:59:43.689Z,3.60
2023-09-05T20:36:46.989Z,9.50
2023-09-05T20:40:17.991Z,9.23
2023-09-05T20:46:09.310Z,7.63
2023-09-05T20:49:24.964Z,10.57
2023-09-05T20:52:16.832Z,9.80
2023-09-05T20:55:09.635Z,7.80
2023-09-05T20:57:49.054Z,7.82
2023-09-05T21:00:51.630Z,10.98
2023-09-05T21:04:22.810Z,22.80
2023-09-05T21:07:45.854Z,10.18
2023-09-05T21:20:35.003Z,12.68
2023-09-05T21:23:02.299Z,13.13
2023-09-05T21:25:31.631Z,12.93
2023-09-05T21:28:00.607Z,13.63
2023-09-05T21:30:34.503Z,15.88
2023-09-05T21:35:30.052Z,14.88
2023-09-05T21:38:03.710Z,12.40
2023-09-05T21:40:33.629Z,15.32
2023-09-05T21:43:00.509Z,12.77
2023-09-05T21:45:31.913Z,15.23
2023-09-05T21:53:20.391Z,14.35
2023-09-05T21:55:47.173Z,14.27
2023-09-05T21:58:13.884Z,11.35
2023-09-05T22:00:49.868Z,17.05
2023-09-05T22:03:22.748Z,11.68
2023-09-05T22:05:56.181Z,14.37
2023-09-05T22:08:25.880Z,17.02
2023-09-05T22:10:55.212Z,11.90
2023-09-05T22:13:27.374Z,16.17
2023-09-05T22:16:12.144Z,17.63
2023-09-05T22:18:42.799Z,17.23
2023-09-05T22:21:12.600Z,17.50
2023-09-05T22:23:42.438Z,18.15
2023-09-05T22:26:12.397Z,21.02
2023-09-05T22:28:41.322Z,21.38
2023-09-05T22:31:10.953Z,19.75
2023-09-05T22:33:40.625Z,18.33
2023-09-05T22:36:07.704Z,20.67
2023-09-05T22:38:34.730Z,20.70
2023-09-05T22:41:04.060Z,22.55
2023-09-05T22:43:33.151Z,25.38
2023-09-05T22:46:00.181Z,25.77
2023-09-05T22:48:27.267Z,19.02
2023-09-05T22:50:54.340Z,19.80
2023-09-05T22:53:21.210Z,18.00
2023-09-05T22:55:48.701Z,21.38
2023-09-05T22:58:16.461Z,19.02
2023-09-05T23:00:52.372Z,23.00
2023-09-05T23:03:21.112Z,21.30
2023-09-05T23:05:48.188Z,25.20
2023-09-05T23:08:14.968Z,22.42
2023-09-05T23:10:44.402Z,25.90
2023-09-05T23:13:11.208Z,21.05
2023-09-05T23:15:39.298Z,23.83
2023-09-05T23:18:06.462Z,22.65
2023-09-05T23:20:33.251Z,26.83
2023-09-05T23:23:00.128Z,23.45
2023-09-05T23:25:28.971Z,26.33
2023-09-05T23:27:55.906Z,20.27
2023-09-05T23:30:22.788Z,24.10
2023-09-05T23:32:50.993Z,27.55
2023-09-05T23:35:19.507Z,28.33
2023-09-05T23:37:46.322Z,26.98
2023-09-05T23:40:20.283Z,26.27
2023-09-05T23:42:47.199Z,23.00
2023-09-05T23:45:16.804Z,26.38
2023-09-05T23:47:48.426Z,23.00
2023-09-05T23:50:16.328Z,22.75
2023-09-05T23:52:43.164Z,23.65
2023-09-05T23:55:10.389Z,26.77
2023-09-05T23:57:37.242Z,31.10
